createdAt,value
2022-08-30T00:02:22.875Z,6.00
2022-08-30T00:04:54.553Z,6.13
2022-08-30T00:07:22.932Z,6.65
2022-08-30T00:09:50.544Z,5.93
2022-08-30T00:12:18.179Z,6.57
2022-08-30T00:14:45.760Z,7.68
2022-08-30T00:17:13.766Z,9.52
2022-08-30T00:19:41.360Z,8.88
2022-08-30T00:22:10.341Z,7.00
2022-08-30T00:24:38.471Z,7.07
2022-08-30T00:27:06.021Z,10.80
2022-08-30T00:29:33.637Z,6.43
2022-08-30T00:32:02.616Z,5.07
2022-08-30T00:34:30.511Z,8.48
2022-08-30T00:36:59.387Z,6.07
2022-08-30T00:39:27.191Z,10.48
2022-08-30T00:41:54.670Z,9.55
2022-08-30T00:44:22.321Z,8.75
2022-08-30T00:46:49.870Z,6.53
2022-08-30T00:49:17.438Z,6.60
2022-08-30T00:51:45.011Z,10.27
2022-08-30T00:54:12.749Z,7.97
2022-08-30T00:56:40.889Z,6.78
2022-08-30T00:59:10.481Z,8.82
2022-08-30T01:01:38.617Z,8.15
2022-08-30T01:04:09.048Z,7.07
2022-08-30T01:06:39.551Z,8.13
2022-08-30T01:09:08.490Z,9.05
2022-08-30T01:11:38.126Z,9.35
2022-08-30T01:14:07.790Z,10.85
2022-08-30T01:16:36.169Z,6.82
2022-08-30T01:19:06.909Z,5.97
2022-08-30T01:22:00.309Z,11.73
2022-08-30T01:24:29.061Z,8.00
2022-08-30T01:26:57.606Z,6.82
2022-08-30T01:29:26.530Z,6.97
2022-08-30T01:31:54.520Z,8.23
2022-08-30T01:34:22.211Z,7.65
2022-08-30T01:36:50.746Z,9.90
2022-08-30T01:39:19.400Z,10.57
2022-08-30T01:41:47.001Z,8.50
2022-08-30T01:44:15.504Z,7.63
2022-08-30T01:46:46.791Z,8.15
2022-08-30T01:49:17.669Z,7.43
2022-08-30T01:52:00.729Z,9.88
2022-08-30T01:54:33.736Z,7.53
2022-08-30T01:57:13.108Z,8.57
2022-08-30T01:59:43.572Z,10.05
2022-08-30T02:02:11.272Z,7.25
2022-08-30T02:04:38.755Z,9.15
2022-08-30T02:07:06.477Z,8.80
2022-08-30T02:09:34.141Z,8.05
2022-08-30T02:12:02.131Z,9.45
2022-08-30T02:14:29.613Z,9.85
2022-08-30T02:16:57.214Z,8.77
2022-08-30T02:19:24.849Z,8.48
2022-08-30T02:21:52.489Z,6.88
2022-08-30T02:24:20.075Z,8.88
2022-08-30T02:26:48.779Z,6.85
2022-08-30T02:29:16.428Z,6.57
2022-08-30T02:31:44.079Z,7.78
2022-08-30T02:34:11.590Z,9.10
2022-08-30T02:36:41.061Z,9.48
2022-08-30T02:39:10.960Z,9.55
2022-08-30T02:41:39.449Z,7.75
2022-08-30T02:44:08.677Z,6.40
2022-08-30T02:46:37.030Z,7.43
2022-08-30T02:49:34.071Z,7.70
2022-08-30T02:51:53.107Z,9.15
2022-08-30T02:54:20.860Z,12.27
2022-08-30T02:56:49.470Z,12.73
2022-08-30T02:59:18.150Z,8.02
2022-08-30T03:01:46.055Z,7.57
2022-08-30T03:04:13.800Z,8.20
2022-08-30T03:06:41.509Z,9.48
2022-08-30T03:09:09.035Z,8.45
2022-08-30T03:11:37.808Z,7.43
2022-08-30T03:14:05.509Z,7.22
2022-08-30T03:16:33.415Z,11.30
2022-08-30T03:19:00.997Z,6.78
2022-08-30T03:21:28.565Z,10.93
2022-08-30T03:23:56.110Z,7.07
2022-08-30T03:26:23.859Z,7.00
2022-08-30T03:28:51.388Z,9.70
2022-08-30T03:31:19.092Z,10.95
2022-08-30T03:33:47.875Z,10.35
2022-08-30T03:36:15.545Z,9.52
2022-08-30T03:38:43.060Z,12.45
2022-08-30T03:41:11.572Z,9.20
2022-08-30T03:43:39.154Z,9.70
2022-08-30T03:46:07.978Z,14.35
2022-08-30T03:48:36.239Z,12.90
2022-08-30T03:51:05.976Z,8.80
2022-08-30T03:53:33.837Z,7.38
2022-08-30T03:56:01.645Z,10.95
2022-08-30T03:58:29.310Z,8.73
2022-08-30T04:00:56.954Z,9.10
2022-08-30T04:03:26.181Z,10.18
2022-08-30T04:05:55.127Z,8.82
2022-08-30T04:08:23.748Z,8.57
2022-08-30T04:10:53.519Z,8.70
2022-08-30T04:13:22.904Z,7.63
2022-08-30T04:15:51.137Z,8.73
2022-08-30T04:18:18.788Z,10.88
2022-08-30T04:20:47.546Z,10.05
2022-08-30T04:23:15.502Z,8.35
2022-08-30T04:25:44.193Z,10.07
2022-08-30T04:28:12.128Z,11.02
2022-08-30T04:30:41.586Z,9.07
2022-08-30T04:33:10.424Z,8.98
2022-08-30T04:35:41.904Z,6.85
2022-08-30T04:38:09.927Z,4.93
2022-08-30T04:40:37.671Z,7.85
2022-08-30T04:43:05.327Z,6.18
2022-08-30T04:45:32.894Z,9.90
2022-08-30T04:48:00.597Z,9.05
2022-08-30T04:50:28.071Z,7.15
2022-08-30T04:52:55.639Z,10.30
2022-08-30T04:55:24.948Z,7.13
2022-08-30T04:57:53.278Z,6.80
2022-08-30T05:00:21.025Z,5.45
2022-08-30T05:02:49.413Z,5.80
2022-08-30T05:05:37.053Z,7.30
2022-08-30T05:08:05.127Z,7.15
2022-08-30T05:10:32.774Z,5.32
2022-08-30T05:13:01.013Z,5.63
2022-08-30T05:15:28.727Z,4.47
2022-08-30T05:17:56.364Z,7.05
2022-08-30T05:20:23.957Z,5.10
2022-08-30T05:22:53.804Z,6.40
2022-08-30T05:25:25.298Z,7.43
2022-08-30T05:27:53.793Z,6.35
2022-08-30T05:30:22.804Z,6.68
2022-08-30T05:32:50.678Z,5.30
2022-08-30T05:35:24.942Z,6.35
2022-08-30T05:37:54.300Z,5.60
2022-08-30T05:40:22.107Z,5.78
2022-08-30T05:42:50.152Z,5.97
2022-08-30T05:45:18.147Z,9.20
2022-08-30T05:47:47.696Z,9.20
2022-08-30T05:50:15.836Z,9.10
2022-08-30T05:52:45.291Z,7.45
2022-08-30T05:55:13.595Z,6.68
2022-08-30T05:57:41.989Z,5.63
2022-08-30T06:00:13.704Z,8.55
2022-08-30T06:02:42.641Z,7.68
2022-08-30T06:05:14.321Z,6.60
2022-08-30T06:07:43.660Z,8.73
2022-08-30T06:10:12.676Z,7.38
2022-08-30T06:12:40.608Z,9.73
2022-08-30T06:15:08.647Z,6.03
2022-08-30T06:17:36.623Z,7.80
2022-08-30T06:20:04.741Z,6.30
2022-08-30T06:22:32.281Z,9.73
2022-08-30T06:24:59.787Z,6.47
2022-08-30T06:27:27.384Z,9.07
2022-08-30T06:29:54.861Z,7.20
2022-08-30T06:32:23.147Z,9.25
2022-08-30T06:34:50.655Z,6.22
2022-08-30T06:37:29.147Z,8.13
2022-08-30T06:39:59.569Z,6.88
2022-08-30T06:42:32.340Z,7.35
2022-08-30T06:45:02.129Z,7.68
2022-08-30T06:47:30.156Z,6.10
2022-08-30T06:49:58.689Z,8.63
2022-08-30T06:52:26.598Z,8.45
2022-08-30T06:54:56.446Z,7.75
2022-08-30T06:57:57.860Z,7.28
2022-08-30T07:00:25.553Z,7.15
2022-08-30T07:02:53.502Z,12.77
2022-08-30T07:05:24.644Z,8.73
2022-08-30T07:07:55.210Z,6.43
2022-08-30T07:10:22.711Z,9.88
2022-08-30T07:12:50.192Z,8.43
2022-08-30T07:15:22.962Z,9.80
2022-08-30T07:18:09.299Z,7.32
2022-08-30T07:20:40.514Z,7.22
2022-08-30T07:23:10.024Z,6.45
2022-08-30T07:25:40.179Z,7.25
2022-08-30T07:28:09.477Z,8.82
2022-08-30T07:30:37.793Z,6.55
2022-08-30T07:33:05.542Z,7.03
2022-08-30T07:35:33.090Z,8.18
2022-08-30T07:38:00.740Z,6.72
2022-08-30T07:40:28.458Z,4.40
2022-08-30T07:42:56.364Z,9.55
2022-08-30T07:45:23.869Z,6.85
2022-08-30T07:47:51.433Z,6.07
2022-08-30T07:50:19.013Z,6.28
2022-08-30T07:52:46.645Z,4.15
2022-08-30T07:55:14.074Z,7.07
2022-08-30T07:57:41.643Z,5.85
2022-08-30T08:00:09.817Z,4.50
2022-08-30T08:02:42.027Z,5.53
2022-08-30T08:05:15.063Z,5.93
2022-08-30T08:07:44.623Z,7.68
2022-08-30T08:10:13.592Z,6.40
2022-08-30T08:12:41.595Z,7.20
2022-08-30T08:15:09.633Z,5.93
2022-08-30T08:17:37.222Z,7.53
2022-08-30T08:20:05.315Z,6.40
2022-08-30T08:22:34.858Z,6.47
2022-08-30T08:25:04.791Z,8.63
2022-08-30T08:27:32.212Z,5.90
2022-08-30T08:29:59.794Z,6.15
2022-08-30T08:32:27.428Z,7.43
2022-08-30T08:34:55.101Z,7.95
2022-08-30T08:37:22.621Z,8.60
2022-08-30T08:39:55.868Z,10.90
2022-08-30T08:42:35.139Z,6.20
2022-08-30T08:45:22.412Z,7.10
2022-08-30T08:48:17.175Z,7.47
2022-08-30T08:51:07.503Z,8.07
2022-08-30T08:53:51.724Z,6.53
2022-08-30T08:56:22.103Z,4.30
2022-08-30T08:58:55.499Z,4.80
2022-08-30T09:01:26.010Z,6.72
2022-08-30T09:03:56.101Z,7.45
2022-08-30T09:06:23.700Z,5.68
2022-08-30T09:08:51.422Z,7.03
2022-08-30T09:11:29.298Z,8.32
2022-08-30T09:13:56.953Z,5.78
2022-08-30T09:16:47.251Z,4.82
2022-08-30T09:19:58.631Z,4.32
2022-08-30T09:22:29.018Z,5.30
2022-08-30T09:25:06.268Z,7.75
2022-08-30T09:27:40.083Z,3.33
2022-08-30T09:32:51.631Z,3.08
2022-08-30T09:35:43.784Z,3.63
2022-08-30T09:38:23.612Z,3.97
2022-08-30T09:40:54.380Z,8.32
2022-08-30T09:43:25.671Z,4.55
2022-08-30T09:46:02.265Z,6.40
2022-08-30T09:48:44.067Z,3.72
2022-08-30T09:51:11.843Z,8.07
2022-08-30T09:57:34.188Z,4.80
2022-08-30T10:00:25.424Z,6.13
2022-08-30T10:03:36.339Z,4.10
2022-08-30T10:06:30.312Z,4.30
2022-08-30T10:09:01.231Z,3.55
2022-08-30T10:11:36.027Z,4.43
2022-08-30T10:14:06.670Z,4.22
2022-08-30T10:17:04.859Z,5.22
2022-08-30T10:19:46.587Z,6.03
2022-08-30T10:22:25.301Z,5.63
2022-08-30T10:25:02.819Z,4.13
2022-08-30T10:27:38.271Z,3.38
2022-08-30T10:30:10.865Z,3.53
2022-08-30T10:33:09.368Z,4.25
2022-08-30T10:35:47.828Z,3.13
2022-08-30T10:38:26.971Z,4.18
2022-08-30T10:41:18.450Z,3.97
2022-08-30T10:44:12.110Z,7.82
2022-08-30T10:46:54.910Z,4.07
2022-08-30T10:49:25.966Z,5.22
2022-08-30T10:51:53.548Z,5.35
2022-08-30T10:54:41.057Z,5.07
2022-08-30T10:57:08.829Z,4.82
2022-08-30T10:59:45.811Z,4.60
2022-08-30T11:02:19.329Z,3.75
2022-08-30T11:05:08.432Z,4.75
2022-08-30T11:08:20.344Z,4.03
2022-08-30T11:11:13.001Z,4.07
2022-08-30T11:13:42.426Z,3.30
2022-08-30T11:16:15.793Z,4.85
2022-08-30T11:21:40.890Z,3.78
2022-08-30T11:24:12.119Z,5.23
2022-08-30T11:26:50.117Z,9.82
2022-08-30T11:29:27.196Z,4.22
2022-08-30T11:31:57.651Z,4.85
2022-08-30T11:34:47.386Z,3.17
2022-08-30T11:37:33.984Z,4.05
2022-08-30T11:40:07.646Z,4.03
2022-08-30T11:42:43.607Z,4.18
2022-08-30T11:45:24.765Z,4.38
2022-08-30T11:48:04.648Z,2.95
2022-08-30T11:50:58.328Z,6.75
2022-08-30T11:53:33.009Z,3.65
2022-08-30T11:56:24.897Z,3.40
2022-08-30T11:59:07.448Z,3.80
2022-08-30T12:01:49.840Z,6.47
2022-08-30T12:04:23.148Z,5.75
2022-08-30T12:07:04.514Z,2.85
2022-08-30T12:09:34.853Z,5.03
2022-08-30T12:12:12.571Z,4.20
2022-08-30T12:14:49.042Z,3.47
2022-08-30T12:17:44.068Z,4.40
2022-08-30T12:20:26.990Z,5.57
2022-08-30T12:22:56.548Z,5.40
2022-08-30T12:25:42.349Z,3.13
2022-08-30T12:28:17.804Z,4.57
2022-08-30T12:30:46.553Z,4.75
2022-08-30T12:33:27.344Z,5.40
2022-08-30T12:35:59.838Z,2.65
2022-08-30T12:38:29.926Z,6.95
2022-08-30T12:41:00.811Z,2.45
2022-08-30T12:43:40.623Z,4.82
2022-08-30T12:46:15.201Z,4.85
2022-08-30T12:51:35.284Z,6.45
2022-08-30T12:54:06.769Z,4.40
2022-08-30T12:57:32.055Z,4.20
2022-08-30T13:00:01.625Z,2.90
2022-08-30T13:02:46.296Z,4.35
2022-08-30T13:05:44.479Z,4.10
2022-08-30T13:08:21.383Z,2.30
2022-08-30T13:10:57.388Z,4.13
2022-08-30T13:13:40.584Z,3.35
2022-08-30T13:16:10.022Z,4.68
2022-08-30T13:18:37.974Z,2.13
2022-08-30T13:21:22.966Z,3.47
2022-08-30T13:23:57.651Z,3.80
2022-08-30T13:26:26.154Z,5.15
2022-08-30T13:28:59.983Z,4.07
2022-08-30T13:31:29.158Z,5.87
2022-08-30T13:33:58.854Z,5.47
2022-08-30T13:36:30.795Z,5.25
2022-08-30T13:38:59.655Z,5.90
2022-08-30T13:41:33.786Z,5.00
2022-08-30T13:44:20.230Z,5.78
2022-08-30T13:46:55.369Z,5.05
2022-08-30T13:49:43.448Z,3.42
2022-08-30T13:52:21.092Z,3.03
2022-08-30T13:54:51.702Z,3.33
2022-08-30T14:00:15.208Z,6.30
2022-08-30T14:02:48.780Z,5.13
2022-08-30T14:08:44.424Z,5.10
2022-08-30T14:10:57.810Z,4.03
2022-08-30T14:13:29.131Z,9.70
2022-08-30T14:18:47.893Z,6.15
2022-08-30T14:21:16.804Z,4.35
2022-08-30T14:23:45.165Z,3.40
2022-08-30T14:26:21.286Z,4.43
2022-08-30T14:28:51.375Z,3.80
2022-08-30T14:31:20.269Z,4.78
2022-08-30T14:33:48.794Z,3.80
2022-08-30T14:36:17.470Z,7.50
2022-08-30T14:38:45.553Z,3.65
2022-08-30T14:41:13.624Z,3.58
2022-08-30T14:43:41.843Z,5.57
2022-08-30T14:46:11.188Z,3.20
2022-08-30T14:48:39.620Z,3.97
2022-08-30T14:51:21.313Z,3.78
2022-08-30T14:53:52.465Z,6.70
2022-08-30T14:56:23.054Z,3.28
2022-08-30T14:58:54.634Z,3.42
2022-08-30T15:01:22.941Z,3.97
2022-08-30T15:03:51.227Z,3.00
2022-08-30T15:06:18.893Z,3.00
2022-08-30T15:08:48.434Z,4.35
2022-08-30T15:11:19.175Z,4.57
2022-08-30T15:13:47.287Z,2.90
2022-08-30T15:16:18.289Z,7.18
2022-08-30T15:18:46.563Z,3.45
2022-08-30T15:21:14.742Z,3.85
2022-08-30T15:23:44.928Z,4.35
2022-08-30T15:26:12.530Z,4.28
2022-08-30T15:28:40.174Z,6.78
2022-08-30T15:31:09.512Z,3.97
2022-08-30T15:33:38.340Z,3.53
2022-08-30T15:36:07.530Z,6.25
2022-08-30T15:38:36.294Z,4.30
2022-08-30T15:41:07.083Z,3.30
2022-08-30T15:43:35.932Z,4.07
2022-08-30T15:46:22.874Z,3.67
2022-08-30T15:48:55.525Z,3.92
2022-08-30T15:51:25.474Z,4.50
2022-08-30T15:53:53.539Z,3.20
2022-08-30T15:56:21.243Z,3.47
2022-08-30T15:58:49.265Z,6.03
2022-08-30T16:01:30.280Z,5.57
2022-08-30T16:03:59.954Z,3.08
2022-08-30T16:06:31.503Z,3.60
2022-08-30T16:08:59.523Z,3.55
2022-08-30T16:11:27.572Z,4.68
2022-08-30T16:13:57.242Z,3.40
2022-08-30T16:16:25.296Z,2.83
2022-08-30T16:18:55.090Z,3.00
2022-08-30T16:21:24.712Z,3.53
2022-08-30T16:23:55.725Z,4.32
2022-08-30T16:26:24.574Z,4.03
2022-08-30T16:28:53.582Z,5.15
2022-08-30T16:31:22.342Z,5.32
2022-08-30T16:33:52.543Z,2.90
2022-08-30T16:36:22.369Z,3.72
2022-08-30T16:38:53.569Z,3.28
2022-08-30T16:41:26.694Z,3.45
2022-08-30T16:43:54.642Z,5.28
2022-08-30T16:46:27.359Z,5.97
2022-08-30T16:48:58.246Z,3.65
2022-08-30T16:51:28.282Z,3.08
2022-08-30T16:53:57.602Z,2.85
2022-08-30T16:56:27.437Z,4.68
2022-08-30T16:59:01.830Z,5.35
2022-08-30T17:01:37.536Z,3.72
2022-08-30T17:04:08.365Z,3.95
2022-08-30T17:06:39.272Z,4.50
2022-08-30T17:09:08.547Z,4.13
2022-08-30T17:11:37.291Z,4.10
2022-08-30T17:14:05.393Z,5.07
2022-08-30T17:16:35.718Z,4.80
2022-08-30T17:19:06.899Z,4.60
2022-08-30T17:21:35.118Z,4.72
2022-08-30T17:24:04.498Z,5.05
2022-08-30T17:26:35.313Z,3.15
2022-08-30T17:29:04.250Z,4.75
2022-08-30T17:31:32.077Z,8.15
2022-08-30T17:34:04.330Z,3.20
2022-08-30T17:36:35.274Z,4.72
2022-08-30T17:39:10.954Z,3.95
2022-08-30T17:41:45.530Z,5.35
2022-08-30T17:44:25.913Z,4.30
2022-08-30T17:46:56.381Z,6.18
2022-08-30T17:49:27.031Z,3.55
2022-08-30T17:51:56.849Z,4.50
2022-08-30T17:54:26.866Z,4.93
2022-08-30T17:56:55.832Z,4.25
2022-08-30T17:59:25.624Z,3.50
2022-08-30T18:01:55.323Z,4.55
2022-08-30T18:04:25.017Z,5.82
2022-08-30T18:06:55.912Z,4.22
2022-08-30T18:09:24.783Z,9.57
2022-08-30T18:11:56.428Z,8.88
2022-08-30T18:14:25.351Z,6.95
2022-08-30T18:16:54.859Z,6.07
2022-08-30T18:19:25.801Z,7.68
2022-08-30T18:21:54.361Z,6.35
2022-08-30T18:24:23.298Z,4.93
2022-08-30T18:26:51.711Z,5.68
2022-08-30T18:29:26.391Z,5.60
2022-08-30T18:32:01.920Z,4.28
2022-08-30T18:34:31.932Z,4.32
2022-08-30T18:37:01.055Z,5.00
2022-08-30T18:39:34.421Z,5.78
2022-08-30T18:42:07.141Z,4.13
2022-08-30T18:44:40.023Z,4.38
2022-08-30T18:47:08.242Z,5.80
2022-08-30T18:49:37.348Z,4.43
2022-08-30T18:52:09.009Z,3.50
2022-08-30T18:54:46.267Z,4.18
2022-08-30T18:57:21.976Z,6.72
2022-08-30T18:59:50.478Z,3.92
2022-08-30T19:02:18.291Z,5.68
2022-08-30T19:04:46.530Z,3.15
2022-08-30T19:07:17.260Z,6.32
2022-08-30T19:09:47.486Z,4.40
2022-08-30T19:12:15.193Z,5.00
2022-08-30T19:14:46.525Z,4.63
2022-08-30T19:17:15.777Z,4.07
2022-08-30T19:19:48.442Z,3.85
2022-08-30T19:22:20.487Z,4.95
2022-08-30T19:24:50.170Z,4.40
2022-08-30T19:27:37.976Z,6.60
2022-08-30T19:30:29.924Z,8.00
2022-08-30T19:32:58.441Z,4.57
2022-08-30T19:35:29.864Z,5.25
2022-08-30T19:37:59.459Z,4.22
2022-08-30T19:40:27.461Z,5.28
2022-08-30T19:42:55.869Z,4.75
2022-08-30T19:45:23.566Z,5.50
2022-08-30T19:47:53.496Z,6.07
2022-08-30T19:50:22.658Z,6.53
2022-08-30T19:52:54.720Z,6.93
2022-08-30T19:55:28.337Z,6.80
2022-08-30T19:57:56.892Z,5.10
2022-08-30T20:00:24.590Z,6.90
2022-08-30T20:02:52.370Z,6.47
2022-08-30T20:05:21.425Z,7.75
2022-08-30T20:07:51.473Z,4.28
2022-08-30T20:10:20.979Z,6.38
2022-08-30T20:12:54.329Z,6.75
2022-08-30T20:15:22.598Z,6.68
2022-08-30T20:18:05.159Z,7.68
2022-08-30T20:20:36.135Z,7.00
2022-08-30T20:23:06.202Z,7.05
2022-08-30T20:25:34.821Z,5.43
2022-08-30T20:28:03.106Z,7.70
2022-08-30T20:30:31.230Z,7.50
2022-08-30T20:33:00.636Z,5.72
2022-08-30T20:35:29.600Z,7.40
2022-08-30T20:37:57.200Z,5.45
2022-08-30T20:40:24.879Z,8.30
2022-08-30T20:42:52.901Z,7.35
2022-08-30T20:45:20.631Z,8.32
2022-08-30T20:47:48.149Z,6.13
2022-08-30T20:50:16.593Z,6.28
2022-08-30T20:52:44.930Z,4.95
2022-08-30T20:55:13.816Z,4.35
2022-08-30T20:57:41.590Z,5.53
2022-08-30T21:00:13.750Z,7.00
2022-08-30T21:02:47.013Z,9.00
2022-08-30T21:05:17.712Z,6.47
2022-08-30T21:07:46.002Z,10.00
2022-08-30T21:10:15.001Z,5.35
2022-08-30T21:12:43.090Z,8.95
2022-08-30T21:15:33.769Z,8.63
2022-08-30T21:18:00.399Z,6.28
2022-08-30T21:20:29.228Z,6.60
2022-08-30T21:22:56.777Z,5.45
2022-08-30T21:25:24.220Z,6.13
2022-08-30T21:27:53.884Z,5.88
2022-08-30T21:30:21.460Z,5.47
2022-08-30T21:32:49.050Z,5.10
2022-08-30T21:35:35.330Z,5.93
2022-08-30T21:38:06.675Z,6.88
2022-08-30T21:40:34.542Z,6.90
2022-08-30T21:43:05.740Z,6.38
2022-08-30T21:45:44.373Z,6.63
2022-08-30T21:48:13.536Z,5.68
2022-08-30T21:50:42.971Z,6.05
2022-08-30T21:53:11.117Z,9.23
2022-08-30T21:55:43.115Z,6.75
2022-08-30T21:58:11.545Z,7.22
2022-08-30T22:00:39.109Z,6.05
2022-08-30T22:03:06.718Z,5.78
2022-08-30T22:05:34.379Z,7.72
2022-08-30T22:08:02.055Z,7.55
2022-08-30T22:10:33.043Z,5.90
2022-08-30T22:13:01.090Z,6.85
2022-08-30T22:15:28.865Z,4.57
2022-08-30T22:17:57.179Z,5.97
2022-08-30T22:20:24.700Z,5.45
2022-08-30T22:22:55.114Z,4.88
2022-08-30T22:25:22.660Z,7.43
2022-08-30T22:27:50.208Z,4.70
2022-08-30T22:30:18.098Z,6.55
2022-08-30T22:32:45.659Z,5.72
2022-08-30T22:35:13.248Z,5.63
2022-08-30T22:37:57.883Z,7.38
2022-08-30T22:40:25.565Z,4.90
2022-08-30T22:42:53.192Z,8.70
2022-08-30T22:45:20.757Z,5.38
2022-08-30T22:47:48.295Z,5.22
2022-08-30T22:50:15.954Z,6.13
2022-08-30T22:52:43.925Z,5.25
2022-08-30T22:55:11.653Z,5.50
2022-08-30T22:57:40.514Z,5.55
2022-08-30T23:00:17.863Z,6.47
2022-08-30T23:02:50.348Z,8.15
2022-08-30T23:05:20.354Z,6.25
2022-08-30T23:07:48.352Z,6.75
2022-08-30T23:10:16.014Z,6.03
2022-08-30T23:12:44.143Z,5.47
2022-08-30T23:15:14.144Z,6.13
2022-08-30T23:17:41.931Z,7.18
2022-08-30T23:20:09.933Z,9.63
2022-08-30T23:22:37.559Z,7.43
2022-08-30T23:25:25.383Z,6.53
2022-08-30T23:28:17.410Z,8.38
2022-08-30T23:31:06.983Z,8.50
2022-08-30T23:33:53.326Z,7.57
2022-08-30T23:36:39.382Z,6.25
2022-08-30T23:39:25.704Z,7.43
2022-08-30T23:42:11.921Z,9.30
2022-08-30T23:44:58.459Z,4.72
2022-08-30T23:47:44.583Z,5.43
2022-08-30T23:50:30.877Z,7.88
2022-08-30T23:53:17.090Z,7.15
2022-08-30T23:56:03.944Z,6.93
2022-08-30T23:58:49.943Z,7.18
